createdAt,value
2019-03-11T00:00:45.135Z,3.67
2019-03-11T00:01:45.621Z,3.68
2019-03-11T00:02:45.814Z,3.66
2019-03-11T00:03:46.187Z,3.66
2019-03-11T00:04:46.503Z,3.66
2019-03-11T00:05:46.651Z,3.64
2019-03-11T00:06:46.896Z,3.63
2019-03-11T00:07:47.235Z,3.61
2019-03-11T00:08:47.363Z,3.61
2019-03-11T00:09:47.577Z,3.62
2019-03-11T00:10:47.667Z,3.70
2019-03-11T00:11:47.915Z,3.68
2019-03-11T00:12:48.092Z,3.67
2019-03-11T00:14:48.265Z,3.69
2019-03-11T00:15:48.407Z,3.75
2019-03-11T00:16:48.539Z,3.72
2019-03-11T00:17:48.629Z,3.70
2019-03-11T00:18:48.773Z,3.70
2019-03-11T00:19:48.923Z,3.73
2019-03-11T00:20:49.031Z,3.71
2019-03-11T00:21:49.171Z,3.73
2019-03-11T00:22:49.343Z,3.74
2019-03-11T00:23:49.448Z,3.74
2019-03-11T00:24:49.591Z,3.73
2019-03-11T00:25:49.692Z,3.70
2019-03-11T00:26:49.765Z,3.67
2019-03-11T00:27:49.807Z,3.64
2019-03-11T00:28:49.933Z,3.61
2019-03-11T00:29:50.075Z,3.56
2019-03-11T00:30:50.159Z,3.53
2019-03-11T00:31:50.319Z,3.50
2019-03-11T00:32:50.695Z,3.47
2019-03-11T00:33:50.933Z,3.43
2019-03-11T00:34:51.247Z,3.42
2019-03-11T00:35:51.605Z,3.43
2019-03-11T00:36:51.872Z,3.40
2019-03-11T00:37:52.068Z,3.39
2019-03-11T00:38:52.168Z,3.39
2019-03-11T00:39:52.388Z,3.38
2019-03-11T00:40:52.556Z,3.35
2019-03-11T00:41:52.753Z,3.35
2019-03-11T00:42:53.042Z,3.35
2019-03-11T00:43:53.255Z,3.32
2019-03-11T00:44:53.476Z,3.32
2019-03-11T00:45:53.680Z,3.30
2019-03-11T00:46:53.844Z,3.27
2019-03-11T00:48:01.985Z,3.26
2019-03-11T00:48:54.259Z,3.23
2019-03-11T00:49:54.416Z,3.20
2019-03-11T00:50:54.609Z,3.19
2019-03-11T00:51:54.847Z,3.16
2019-03-11T00:52:55.054Z,3.16
2019-03-11T00:53:55.239Z,3.14
2019-03-11T00:54:55.420Z,3.12
2019-03-11T00:55:55.609Z,3.13
2019-03-11T00:56:55.842Z,3.11
2019-03-11T00:57:56.018Z,3.10
2019-03-11T00:58:56.285Z,3.09
2019-03-11T00:59:56.457Z,3.08
2019-03-11T01:00:56.667Z,3.07
2019-03-11T01:01:56.864Z,3.09
2019-03-11T01:02:57.024Z,3.09
2019-03-11T01:03:57.157Z,3.10
2019-03-11T01:04:57.389Z,3.11
2019-03-11T01:05:57.625Z,3.13
2019-03-11T01:06:57.777Z,3.13
2019-03-11T01:07:58.019Z,3.17
2019-03-11T01:08:58.234Z,3.17
2019-03-11T01:09:58.395Z,3.21
2019-03-11T01:10:58.608Z,3.22
2019-03-11T01:11:58.801Z,3.25
2019-03-11T01:12:59.027Z,3.30
2019-03-11T01:13:59.235Z,3.32
2019-03-11T01:14:59.511Z,3.33
2019-03-11T01:16:59.716Z,3.34
2019-03-11T01:17:59.902Z,3.38
2019-03-11T01:19:00.058Z,3.40
2019-03-11T01:20:00.343Z,3.39
2019-03-11T01:21:00.711Z,3.41
2019-03-11T01:22:00.960Z,3.44
2019-03-11T01:23:01.444Z,3.47
2019-03-11T01:24:01.887Z,3.49
2019-03-11T01:25:04.837Z,3.51
2019-03-11T01:26:02.285Z,3.52
2019-03-11T01:27:02.497Z,3.54
2019-03-11T01:28:02.764Z,3.56
2019-03-11T01:29:02.887Z,3.56
2019-03-11T01:30:03.028Z,3.59
2019-03-11T01:31:03.233Z,3.61
2019-03-11T01:32:03.407Z,3.62
2019-03-11T01:33:03.451Z,3.67
2019-03-11T01:34:03.601Z,3.69
2019-03-11T01:35:03.708Z,3.73
2019-03-11T01:36:04.033Z,3.75
2019-03-11T01:37:04.226Z,3.78
2019-03-11T01:38:04.774Z,3.80
2019-03-11T01:39:04.413Z,3.82
2019-03-11T01:40:04.663Z,3.85
2019-03-11T01:41:04.858Z,3.87
2019-03-11T01:42:05.039Z,3.87
2019-03-11T01:43:05.255Z,3.88
2019-03-11T01:44:05.437Z,3.89
2019-03-11T01:45:05.582Z,3.90
2019-03-11T01:46:06.140Z,3.94
2019-03-11T01:47:06.303Z,3.98
2019-03-11T01:48:06.509Z,4.02
2019-03-11T01:49:06.790Z,4.05
2019-03-11T01:50:07.262Z,4.09
2019-03-11T01:51:07.392Z,4.11
2019-03-11T01:52:07.571Z,4.15
2019-03-11T01:53:07.816Z,4.18
2019-03-11T01:54:08.073Z,4.23
2019-03-11T01:55:08.237Z,4.29
2019-03-11T01:56:08.521Z,4.36
2019-03-11T01:58:08.813Z,4.40
2019-03-11T01:59:09.025Z,4.55
2019-03-11T02:00:09.303Z,4.65
2019-03-11T02:01:09.302Z,4.66
2019-03-11T02:02:09.463Z,4.78
2019-03-11T02:03:09.627Z,4.78
2019-03-11T02:04:09.776Z,4.79
2019-03-11T02:05:09.877Z,4.80
2019-03-11T02:06:10.085Z,4.81
2019-03-11T02:07:10.273Z,4.83
2019-03-11T02:08:10.460Z,4.85
2019-03-11T02:09:10.582Z,4.82
2019-03-11T02:10:10.791Z,4.80
2019-03-11T02:11:11.006Z,4.74
2019-03-11T02:12:11.243Z,4.71
2019-03-11T02:13:11.351Z,4.70
2019-03-11T02:14:11.608Z,4.68
2019-03-11T02:15:11.813Z,4.68
2019-03-11T02:16:12.027Z,4.66
2019-03-11T02:17:12.127Z,4.68
2019-03-11T02:18:12.283Z,4.69
2019-03-11T02:19:12.541Z,4.70
2019-03-11T02:20:12.746Z,4.71
2019-03-11T02:21:12.987Z,4.76
2019-03-11T02:22:13.209Z,4.78
2019-03-11T02:23:13.454Z,4.76
2019-03-11T02:24:13.547Z,4.74
2019-03-11T02:25:13.842Z,4.73
2019-03-11T02:26:14.069Z,4.70
2019-03-11T02:27:14.274Z,4.69
2019-03-11T02:28:14.445Z,4.73
2019-03-11T02:29:14.617Z,4.73
2019-03-11T02:30:14.741Z,4.71
2019-03-11T02:31:14.920Z,4.68
2019-03-11T02:32:15.117Z,4.69
2019-03-11T02:34:15.353Z,4.68
2019-03-11T02:35:15.573Z,4.70
2019-03-11T02:37:15.660Z,4.73
2019-03-11T02:38:15.828Z,4.70
2019-03-11T02:39:16.054Z,4.71
2019-03-11T02:40:16.555Z,4.74
2019-03-11T02:41:16.853Z,4.76
2019-03-11T02:42:17.158Z,4.78
2019-03-11T02:43:17.474Z,4.79
2019-03-11T02:44:17.693Z,4.79
2019-03-11T02:45:17.904Z,4.81
2019-03-11T02:46:18.064Z,4.85
2019-03-11T02:47:18.286Z,4.82
2019-03-11T02:48:18.370Z,4.81
2019-03-11T02:49:18.539Z,4.79
2019-03-11T02:50:18.766Z,4.78
2019-03-11T02:51:18.879Z,4.79
2019-03-11T02:52:18.968Z,4.79
2019-03-11T02:53:19.128Z,4.83
2019-03-11T02:54:19.221Z,4.88
2019-03-11T02:55:19.316Z,4.91
2019-03-11T02:56:19.476Z,4.98
2019-03-11T02:57:19.602Z,5.03
2019-03-11T02:58:19.683Z,5.04
2019-03-11T02:59:19.853Z,5.06
2019-03-11T03:00:19.955Z,5.08
2019-03-11T03:01:20.030Z,5.12
2019-03-11T03:02:20.374Z,5.14
2019-03-11T03:03:20.713Z,5.24
2019-03-11T03:04:21.090Z,5.28
2019-03-11T03:05:21.309Z,5.33
2019-03-11T03:06:21.678Z,5.33
2019-03-11T03:07:21.915Z,5.44
2019-03-11T03:08:22.004Z,5.46
2019-03-11T03:09:22.260Z,5.45
2019-03-11T03:10:22.476Z,5.44
2019-03-11T03:11:22.660Z,5.45
2019-03-11T03:12:22.843Z,5.47
2019-03-11T03:13:23.001Z,5.52
2019-03-11T03:14:23.240Z,5.55
2019-03-11T03:15:23.608Z,5.54
2019-03-11T03:16:23.694Z,5.57
2019-03-11T03:17:23.945Z,5.57
2019-03-11T03:18:24.203Z,5.55
2019-03-11T03:19:24.341Z,5.54
2019-03-11T03:20:24.514Z,5.52
2019-03-11T03:21:24.730Z,5.52
2019-03-11T03:22:24.914Z,5.50
2019-03-11T03:23:25.155Z,5.50
2019-03-11T03:24:25.349Z,5.53
2019-03-11T03:25:33.849Z,5.54
2019-03-11T03:26:25.812Z,5.56
2019-03-11T03:27:25.962Z,5.57
2019-03-11T03:28:26.141Z,5.57
2019-03-11T03:29:26.386Z,5.55
2019-03-11T03:30:26.657Z,5.54
2019-03-11T03:31:26.747Z,5.55
2019-03-11T03:32:26.986Z,5.55
2019-03-11T03:33:27.166Z,5.54
2019-03-11T03:34:27.433Z,5.54
2019-03-11T03:35:27.561Z,5.51
2019-03-11T03:36:27.810Z,5.54
2019-03-11T03:37:28.023Z,5.54
2019-03-11T03:38:30.934Z,5.55
2019-03-11T03:39:28.427Z,5.56
2019-03-11T03:40:28.648Z,5.58
2019-03-11T03:41:28.832Z,5.59
2019-03-11T03:42:29.087Z,5.58
2019-03-11T03:43:29.225Z,5.61
2019-03-11T03:44:29.487Z,5.62
2019-03-11T03:45:29.526Z,5.65
2019-03-11T03:46:29.707Z,5.67
2019-03-11T03:47:29.826Z,5.69
2019-03-11T03:48:30.113Z,5.67
2019-03-11T03:49:30.173Z,5.67
2019-03-11T03:50:30.340Z,5.63
2019-03-11T03:51:30.702Z,5.61
2019-03-11T03:52:31.021Z,5.59
2019-03-11T03:53:31.224Z,5.50
2019-03-11T03:55:31.581Z,5.39
2019-03-11T03:56:31.793Z,5.28
2019-03-11T03:57:31.964Z,5.15
2019-03-11T03:58:32.124Z,5.13
2019-03-11T04:00:32.343Z,5.10
2019-03-11T04:01:32.510Z,5.02
2019-03-11T04:02:32.653Z,4.98
2019-03-11T04:03:32.728Z,4.94
2019-03-11T04:04:32.832Z,4.90
2019-03-11T04:05:32.942Z,4.85
2019-03-11T04:06:32.993Z,4.83
2019-03-11T04:07:33.002Z,4.80
2019-03-11T04:09:33.170Z,4.78
2019-03-11T04:10:33.382Z,4.72
2019-03-11T04:11:33.543Z,4.71
2019-03-11T04:12:33.648Z,4.68
2019-03-11T04:13:33.767Z,4.68
2019-03-11T04:14:33.878Z,4.65
2019-03-11T04:15:34.082Z,4.63
2019-03-11T04:16:34.129Z,4.60
2019-03-11T04:17:34.244Z,4.59
2019-03-11T04:18:34.362Z,4.57
2019-03-11T04:19:34.602Z,4.55
2019-03-11T04:20:34.710Z,4.53
2019-03-11T04:21:34.872Z,4.50
2019-03-11T04:22:35.001Z,4.49
2019-03-11T04:23:35.162Z,4.47
2019-03-11T04:24:35.415Z,4.46
2019-03-11T04:25:35.642Z,4.45
2019-03-11T04:26:36.017Z,4.43
2019-03-11T04:27:36.206Z,4.41
2019-03-11T04:28:36.411Z,4.40
2019-03-11T04:29:36.638Z,4.38
2019-03-11T04:30:36.900Z,4.38
2019-03-11T04:31:37.114Z,4.38
2019-03-11T04:32:37.269Z,4.38
2019-03-11T04:33:37.519Z,4.37
2019-03-11T04:34:37.706Z,4.35
2019-03-11T04:35:37.899Z,4.35
2019-03-11T04:36:38.113Z,4.33
2019-03-11T04:37:38.365Z,4.33
2019-03-11T04:38:38.525Z,4.31
2019-03-11T04:39:38.704Z,4.31
2019-03-11T04:40:38.864Z,4.30
2019-03-11T04:41:39.035Z,4.29
2019-03-11T04:42:39.208Z,4.28
2019-03-11T04:43:39.399Z,4.28
2019-03-11T04:44:39.720Z,4.28
2019-03-11T04:45:39.900Z,4.27
2019-03-11T04:46:40.161Z,4.27
2019-03-11T04:47:40.347Z,4.27
2019-03-11T04:48:40.490Z,4.27
2019-03-11T04:49:40.610Z,4.27
2019-03-11T04:50:40.861Z,4.27
2019-03-11T04:51:41.095Z,4.27
2019-03-11T04:52:41.281Z,4.27
2019-03-11T04:53:41.647Z,4.26
2019-03-11T04:54:41.857Z,4.26
2019-03-11T04:55:42.014Z,4.25
2019-03-11T04:56:42.168Z,4.25
2019-03-11T04:57:42.320Z,4.25
2019-03-11T04:58:42.407Z,4.24
2019-03-11T04:59:42.581Z,4.22
2019-03-11T05:00:42.815Z,4.21
2019-03-11T05:01:42.999Z,4.19
2019-03-11T05:02:43.105Z,4.17
2019-03-11T05:03:45.961Z,4.17
2019-03-11T05:04:43.411Z,4.16
2019-03-11T05:05:43.633Z,4.15
2019-03-11T05:06:43.746Z,4.13
2019-03-11T05:07:43.971Z,4.13
2019-03-11T05:08:44.173Z,4.14
2019-03-11T05:09:44.308Z,4.13
2019-03-11T05:10:44.464Z,4.12
2019-03-11T05:11:44.702Z,4.11
2019-03-11T05:12:44.827Z,4.12
2019-03-11T05:13:45.021Z,4.11
2019-03-11T05:14:45.198Z,3.96
2019-03-11T05:15:45.408Z,3.96
2019-03-11T05:16:45.616Z,3.90
2019-03-11T05:17:48.320Z,3.71
2019-03-11T05:18:46.052Z,3.56
2019-03-11T05:19:46.291Z,3.24
2019-03-11T05:20:46.448Z,3.19
2019-03-11T05:21:46.717Z,3.05
2019-03-11T05:22:46.907Z,2.93
2019-03-11T05:23:47.050Z,2.87
2019-03-11T05:24:47.270Z,2.83
2019-03-11T05:25:47.394Z,2.77
2019-03-11T05:26:47.546Z,2.70
2019-03-11T05:27:47.714Z,2.67
2019-03-11T05:28:49.375Z,2.66
2019-03-11T05:29:48.005Z,2.60
2019-03-11T05:30:48.241Z,2.57
2019-03-11T05:31:48.371Z,2.58
2019-03-11T05:32:48.487Z,2.57
2019-03-11T05:33:48.668Z,2.53
2019-03-11T05:34:48.801Z,2.49
2019-03-11T05:35:48.962Z,2.46
2019-03-11T05:36:49.124Z,2.44
2019-03-11T05:37:49.263Z,2.45
2019-03-11T05:38:49.323Z,2.46
2019-03-11T05:39:49.464Z,2.46
2019-03-11T05:40:49.515Z,2.46
2019-03-11T05:41:49.639Z,2.47
2019-03-11T05:42:49.684Z,2.51
2019-03-11T05:43:49.779Z,2.50
2019-03-11T05:44:49.912Z,2.52
2019-03-11T05:45:50.144Z,2.53
2019-03-11T05:46:50.315Z,2.53
2019-03-11T05:47:50.473Z,2.58
2019-03-11T05:48:50.731Z,2.62
2019-03-11T05:49:50.971Z,2.67
2019-03-11T05:50:51.061Z,2.70
2019-03-11T05:51:51.749Z,2.73
2019-03-11T05:52:51.378Z,2.76
2019-03-11T05:53:51.530Z,2.80
2019-03-11T05:54:51.662Z,2.85
2019-03-11T05:55:51.911Z,2.90
2019-03-11T05:56:51.999Z,2.92
2019-03-11T05:57:52.229Z,2.96
2019-03-11T05:58:52.451Z,2.98
2019-03-11T05:59:52.644Z,2.99
2019-03-11T06:00:52.836Z,3.03
2019-03-11T06:01:52.984Z,3.06
2019-03-11T06:02:53.113Z,3.09
2019-03-11T06:03:53.264Z,3.06
2019-03-11T06:04:53.596Z,3.04
2019-03-11T06:05:53.869Z,3.05
2019-03-11T06:06:54.004Z,3.00
2019-03-11T06:07:54.386Z,2.99
2019-03-11T06:08:54.503Z,2.97
2019-03-11T06:09:54.684Z,2.93
2019-03-11T06:10:54.980Z,2.90
2019-03-11T06:11:55.073Z,2.89
2019-03-11T06:12:55.216Z,2.88
2019-03-11T06:13:55.489Z,2.84
2019-03-11T06:14:55.705Z,2.82
2019-03-11T06:15:56.051Z,2.79
2019-03-11T06:16:56.270Z,2.74
2019-03-11T06:17:56.489Z,2.71
2019-03-11T06:18:56.671Z,2.65
2019-03-11T06:19:56.824Z,2.65
2019-03-11T06:20:57.093Z,2.64
2019-03-11T06:21:57.401Z,2.63
2019-03-11T06:22:57.780Z,2.62
2019-03-11T06:23:58.162Z,2.61
2019-03-11T06:24:58.354Z,2.59
2019-03-11T06:25:58.463Z,2.58
2019-03-11T06:26:58.626Z,2.57
2019-03-11T06:27:58.785Z,2.56
2019-03-11T06:28:58.956Z,2.55
2019-03-11T06:29:59.169Z,2.54
2019-03-11T06:30:59.363Z,2.53
2019-03-11T06:31:59.519Z,2.52
2019-03-11T06:32:59.727Z,2.51
2019-03-11T06:33:59.845Z,2.49
2019-03-11T06:34:59.977Z,2.47
2019-03-11T06:36:00.175Z,2.46
2019-03-11T06:37:00.417Z,2.45
2019-03-11T06:38:00.663Z,2.44
2019-03-11T06:39:05.689Z,2.45
2019-03-11T06:40:01.347Z,2.45
2019-03-11T06:42:01.649Z,2.45
2019-03-11T06:43:02.148Z,2.46
2019-03-11T06:44:02.344Z,2.46
2019-03-11T06:45:02.429Z,2.47
2019-03-11T06:46:02.686Z,2.47
2019-03-11T06:47:02.789Z,2.48
2019-03-11T06:48:03.020Z,2.50
2019-03-11T06:49:03.137Z,2.51
2019-03-11T06:50:03.266Z,2.54
2019-03-11T06:51:03.584Z,2.56
2019-03-11T06:52:03.833Z,2.58
2019-03-11T06:53:03.800Z,2.61
2019-03-11T06:54:03.912Z,2.64
2019-03-11T06:55:04.071Z,2.68
2019-03-11T06:56:04.185Z,2.72
2019-03-11T06:57:04.405Z,2.77
2019-03-11T06:58:04.524Z,2.81
2019-03-11T06:59:04.618Z,2.86
2019-03-11T07:00:05.077Z,2.90
2019-03-11T07:01:04.741Z,2.94
2019-03-11T07:02:04.816Z,2.98
2019-03-11T07:03:04.839Z,3.02
2019-03-11T07:04:04.960Z,3.06
2019-03-11T07:05:05.144Z,3.11
2019-03-11T07:06:05.318Z,3.15
2019-03-11T07:07:05.548Z,3.20
2019-03-11T07:08:05.716Z,3.24
2019-03-11T07:09:06.101Z,3.28
2019-03-11T07:10:06.134Z,3.33
2019-03-11T07:11:06.239Z,3.38
2019-03-11T07:12:06.423Z,3.44
2019-03-11T07:13:06.676Z,3.50
2019-03-11T07:14:06.900Z,3.54
2019-03-11T07:15:07.073Z,3.57
2019-03-11T07:16:09.337Z,3.62
2019-03-11T07:17:07.442Z,3.66
2019-03-11T07:18:07.645Z,3.70
2019-03-11T07:19:07.880Z,3.76
2019-03-11T07:20:08.077Z,3.85
2019-03-11T07:21:08.628Z,3.93
2019-03-11T07:22:08.827Z,3.99
2019-03-11T07:23:08.957Z,4.04
2019-03-11T07:24:09.304Z,4.08
2019-03-11T07:25:09.521Z,4.13
2019-03-11T07:26:09.702Z,4.19
2019-03-11T07:27:09.940Z,4.24
2019-03-11T07:28:10.171Z,4.26
2019-03-11T07:29:10.286Z,4.28
2019-03-11T07:30:10.534Z,4.31
2019-03-11T07:31:10.842Z,4.30
2019-03-11T07:32:11.074Z,4.31
2019-03-11T07:33:11.293Z,4.32
2019-03-11T07:34:16.025Z,4.31
2019-03-11T07:35:11.951Z,4.36
2019-03-11T07:36:12.151Z,4.44
2019-03-11T07:37:12.495Z,4.50
2019-03-11T07:38:12.563Z,4.57
2019-03-11T07:39:12.757Z,4.65
2019-03-11T07:40:12.932Z,4.73
2019-03-11T07:41:13.143Z,4.79
2019-03-11T07:42:13.278Z,4.88
2019-03-11T07:43:13.510Z,4.97
2019-03-11T07:44:13.753Z,5.06
2019-03-11T07:45:14.023Z,5.12
2019-03-11T07:46:14.134Z,5.19
2019-03-11T07:47:14.371Z,5.26
2019-03-11T07:48:14.476Z,5.33
2019-03-11T07:49:14.615Z,5.41
2019-03-11T07:50:14.788Z,5.52
2019-03-11T07:51:15.011Z,5.60
2019-03-11T07:52:15.223Z,5.65
2019-03-11T07:53:15.497Z,5.71
2019-03-11T07:54:15.794Z,5.73
2019-03-11T07:55:16.106Z,5.76
2019-03-11T07:56:16.263Z,5.82
2019-03-11T07:57:16.522Z,5.89
2019-03-11T07:58:16.801Z,5.95
2019-03-11T07:59:16.927Z,5.97
2019-03-11T08:00:17.226Z,5.98
2019-03-11T08:01:17.468Z,6.01
2019-03-11T08:02:18.471Z,6.05
2019-03-11T08:03:17.820Z,6.13
2019-03-11T08:04:17.948Z,6.17
2019-03-11T08:05:18.079Z,6.25
2019-03-11T08:07:18.219Z,6.34
2019-03-11T08:08:18.324Z,6.41
2019-03-11T08:09:18.513Z,6.53
2019-03-11T08:10:18.678Z,6.61
2019-03-11T08:11:18.773Z,6.68
2019-03-11T08:12:18.910Z,6.73
2019-03-11T08:13:19.065Z,6.76
2019-03-11T08:14:19.179Z,6.78
2019-03-11T08:15:19.278Z,6.73
2019-03-11T08:16:19.377Z,6.74
2019-03-11T08:17:19.496Z,6.76
2019-03-11T08:18:19.604Z,6.74
2019-03-11T08:19:19.716Z,6.73
2019-03-11T08:20:19.811Z,6.72
2019-03-11T08:21:19.967Z,6.72
2019-03-11T08:22:20.291Z,6.69
2019-03-11T08:23:20.470Z,6.65
2019-03-11T08:24:20.714Z,6.61
2019-03-11T08:25:20.921Z,6.63
2019-03-11T08:26:21.101Z,6.65
2019-03-11T08:27:21.392Z,6.64
2019-03-11T08:28:21.603Z,6.62
2019-03-11T08:29:21.854Z,6.59
2019-03-11T08:30:22.094Z,6.59
2019-03-11T08:31:22.156Z,6.60
2019-03-11T08:32:22.274Z,6.59
2019-03-11T08:33:22.521Z,6.61
2019-03-11T08:34:22.703Z,6.65
2019-03-11T08:35:22.905Z,6.65
2019-03-11T08:36:23.122Z,6.66
2019-03-11T08:37:23.341Z,6.66
2019-03-11T08:38:23.483Z,6.67
2019-03-11T08:39:23.654Z,6.70
2019-03-11T08:40:23.916Z,6.73
2019-03-11T08:41:24.142Z,6.79
2019-03-11T08:42:24.339Z,6.83
2019-03-11T08:43:24.564Z,6.87
2019-03-11T08:44:24.739Z,6.90
2019-03-11T08:45:24.893Z,6.91
2019-03-11T08:46:25.030Z,6.95
2019-03-11T08:47:24.819Z,7.00
2019-03-11T08:48:25.549Z,7.05
2019-03-11T08:49:25.758Z,7.11
2019-03-11T08:50:26.002Z,7.11
2019-03-11T08:51:26.241Z,7.13
2019-03-11T08:52:26.506Z,7.15
2019-03-11T08:53:26.733Z,7.18
2019-03-11T08:54:26.865Z,7.20
2019-03-11T08:55:27.116Z,7.20
2019-03-11T08:56:27.231Z,7.24
2019-03-11T08:57:27.444Z,7.26
2019-03-11T08:58:27.630Z,7.30
2019-03-11T08:59:27.821Z,7.33
2019-03-11T09:00:27.914Z,7.36
2019-03-11T09:01:28.079Z,7.37
2019-03-11T09:02:28.300Z,7.38
2019-03-11T09:03:28.445Z,7.36
2019-03-11T09:04:28.586Z,7.34
2019-03-11T09:05:28.743Z,7.33
2019-03-11T09:06:28.946Z,7.30
2019-03-11T09:07:29.099Z,7.27
2019-03-11T09:08:29.264Z,7.24
2019-03-11T09:09:31.610Z,7.21
2019-03-11T09:10:29.538Z,7.19
2019-03-11T09:11:29.651Z,7.16
2019-03-11T09:12:29.849Z,7.17
2019-03-11T09:13:30.670Z,7.17
2019-03-11T09:14:30.226Z,7.17
2019-03-11T09:15:30.404Z,7.17
2019-03-11T09:16:30.661Z,7.16
2019-03-11T09:18:30.914Z,7.11
2019-03-11T09:19:31.143Z,7.08
2019-03-11T09:20:31.343Z,7.07
2019-03-11T09:21:31.669Z,7.07
2019-03-11T09:22:31.878Z,7.05
2019-03-11T09:23:32.078Z,7.00
2019-03-11T09:24:32.280Z,6.98
2019-03-11T09:25:32.373Z,6.97
2019-03-11T09:26:32.535Z,6.94
2019-03-11T09:27:32.778Z,6.95
2019-03-11T09:28:33.043Z,6.99
2019-03-11T09:29:33.088Z,7.01
2019-03-11T09:30:33.242Z,7.05
2019-03-11T09:31:33.354Z,7.12
2019-03-11T09:32:33.496Z,7.18
2019-03-11T09:33:33.594Z,7.20
2019-03-11T09:34:33.746Z,7.19
2019-03-11T09:35:33.889Z,7.18
2019-03-11T09:36:34.001Z,7.16
2019-03-11T09:37:34.047Z,7.09
2019-03-11T09:38:34.187Z,7.03
2019-03-11T09:39:34.327Z,6.98
2019-03-11T09:40:34.464Z,6.94
2019-03-11T09:41:34.553Z,6.89
2019-03-11T09:42:34.593Z,6.84
2019-03-11T09:43:34.675Z,6.77
2019-03-11T09:44:34.771Z,6.67
2019-03-11T09:45:34.866Z,6.60
2019-03-11T09:46:34.998Z,6.57
2019-03-11T09:47:35.129Z,6.78
2019-03-11T09:48:35.281Z,6.91
2019-03-11T09:49:35.463Z,6.87
2019-03-11T09:50:35.552Z,6.84
2019-03-11T09:51:35.752Z,7.14
2019-03-11T09:52:35.911Z,7.39
2019-03-11T09:53:36.112Z,7.68
2019-03-11T09:54:36.333Z,8.03
2019-03-11T09:55:36.671Z,8.40
2019-03-11T09:56:43.198Z,8.59
2019-03-11T09:57:37.022Z,8.84
2019-03-11T09:58:37.215Z,9.03
2019-03-11T09:59:37.376Z,9.22
2019-03-11T10:00:37.599Z,9.20
2019-03-11T10:01:37.756Z,9.26
2019-03-11T10:02:37.872Z,9.15
2019-03-11T10:03:37.998Z,9.16
2019-03-11T10:04:38.238Z,9.01
2019-03-11T10:05:38.310Z,8.95
2019-03-11T10:06:38.487Z,8.85
2019-03-11T10:07:38.809Z,8.75
2019-03-11T10:08:38.815Z,8.65
2019-03-11T10:09:39.029Z,8.57
2019-03-11T10:10:39.245Z,8.49
2019-03-11T10:11:39.453Z,8.44
2019-03-11T10:12:39.551Z,8.40
2019-03-11T10:13:39.639Z,8.36
2019-03-11T10:14:39.861Z,8.31
2019-03-11T10:15:40.009Z,8.27
2019-03-11T10:16:40.287Z,8.25
2019-03-11T10:17:40.424Z,8.22
2019-03-11T10:18:40.592Z,8.17
2019-03-11T10:19:40.781Z,8.08
2019-03-11T10:20:40.966Z,7.99
2019-03-11T10:21:41.048Z,7.86
2019-03-11T10:22:41.167Z,7.80
2019-03-11T10:23:41.354Z,7.79
2019-03-11T10:24:41.486Z,7.77
2019-03-11T10:25:41.653Z,7.76
2019-03-11T10:26:41.849Z,7.77
2019-03-11T10:27:42.103Z,7.78
2019-03-11T10:28:42.239Z,7.84
2019-03-11T10:29:42.445Z,7.86
2019-03-11T10:30:42.687Z,7.86
2019-03-11T10:31:42.913Z,7.89
2019-03-11T10:32:43.214Z,7.88
2019-03-11T10:33:43.470Z,7.83
2019-03-11T10:34:43.734Z,7.80
2019-03-11T10:35:43.972Z,7.75
2019-03-11T10:37:44.198Z,7.69
2019-03-11T10:38:44.383Z,7.61
2019-03-11T10:39:44.608Z,7.52
2019-03-11T10:40:44.822Z,7.48
2019-03-11T10:41:44.974Z,7.44
2019-03-11T10:42:45.192Z,7.42
2019-03-11T10:43:45.367Z,7.40
2019-03-11T10:44:45.596Z,7.42
2019-03-11T10:45:45.868Z,7.45
2019-03-11T10:46:46.208Z,7.49
2019-03-11T10:47:46.346Z,7.55
2019-03-11T10:48:46.626Z,7.60
2019-03-11T10:49:46.975Z,7.67
2019-03-11T10:50:47.140Z,7.84
2019-03-11T10:51:47.254Z,7.97
2019-03-11T10:52:47.391Z,8.09
2019-03-11T10:53:47.520Z,8.15
2019-03-11T10:54:47.827Z,8.19
2019-03-11T10:56:47.921Z,8.19
2019-03-11T10:57:48.015Z,8.16
2019-03-11T10:58:48.187Z,8.14
2019-03-11T10:59:48.289Z,8.12
2019-03-11T11:00:48.447Z,8.11
2019-03-11T11:01:48.568Z,8.08
2019-03-11T11:02:48.611Z,8.05
2019-03-11T11:03:48.796Z,8.03
2019-03-11T11:04:48.944Z,8.05
2019-03-11T11:05:48.989Z,8.09
2019-03-11T11:06:49.049Z,8.11
2019-03-11T11:07:49.100Z,8.13
2019-03-11T11:08:49.229Z,8.16
2019-03-11T11:09:49.277Z,8.24
2019-03-11T11:10:49.334Z,8.30
2019-03-11T11:11:49.451Z,8.43
2019-03-11T11:12:49.547Z,8.58
2019-03-11T11:13:49.678Z,8.75
2019-03-11T11:14:49.789Z,8.82
2019-03-11T11:15:49.913Z,8.80
2019-03-11T11:16:50.041Z,8.81
2019-03-11T11:17:50.155Z,8.80
2019-03-11T11:18:50.351Z,8.77
2019-03-11T11:19:50.429Z,8.71
2019-03-11T11:20:50.694Z,8.57
2019-03-11T11:21:06.308Z,8.36
2019-03-11T11:22:07.406Z,8.30
2019-03-11T11:23:07.854Z,8.28
2019-03-11T11:24:08.170Z,8.25
2019-03-11T11:25:08.582Z,8.20
2019-03-11T11:26:09.010Z,8.19
2019-03-11T11:27:09.287Z,8.19
2019-03-11T11:28:09.528Z,8.23
2019-03-11T11:29:09.906Z,8.41
2019-03-11T11:30:10.153Z,8.69
2019-03-11T11:31:10.292Z,9.09
2019-03-11T11:32:10.801Z,9.55
2019-03-11T11:33:11.099Z,9.78
2019-03-11T11:34:11.592Z,9.99
2019-03-11T11:35:11.518Z,10.25
2019-03-11T11:36:11.734Z,10.40
2019-03-11T11:37:12.144Z,10.46
2019-03-11T11:38:12.459Z,10.33
2019-03-11T11:39:12.877Z,10.39
2019-03-11T11:40:13.151Z,10.45
2019-03-11T11:41:12.691Z,10.72
2019-03-11T11:42:13.106Z,10.79
2019-03-11T11:43:13.516Z,10.77
2019-03-11T11:44:13.933Z,10.84
2019-03-11T11:45:14.451Z,10.83
2019-03-11T11:46:16.528Z,10.81
2019-03-11T11:47:14.246Z,10.78
2019-03-11T11:48:14.367Z,10.71
2019-03-11T11:49:14.682Z,10.65
2019-03-11T11:50:15.201Z,10.59
2019-03-11T11:51:15.418Z,10.46
2019-03-11T11:52:15.418Z,10.30
2019-03-11T11:53:15.318Z,10.19
2019-03-11T11:54:15.839Z,10.09
2019-03-11T11:55:15.953Z,10.02
2019-03-11T11:56:15.758Z,9.96
2019-03-11T11:57:16.166Z,9.90
2019-03-11T11:58:16.580Z,9.83
2019-03-11T11:59:17.098Z,9.72
2019-03-11T12:01:17.124Z,9.65
2019-03-11T12:02:17.428Z,9.55
2019-03-11T12:03:17.640Z,9.49
2019-03-11T12:04:17.745Z,9.44
2019-03-11T12:05:18.272Z,9.42
2019-03-11T12:06:18.282Z,9.34
2019-03-11T12:07:18.324Z,9.30
2019-03-11T12:08:18.796Z,9.28
2019-03-11T12:09:18.703Z,9.25
2019-03-11T12:11:19.221Z,9.21
2019-03-11T12:12:19.437Z,9.21
2019-03-11T12:13:19.650Z,9.20
2019-03-11T12:14:19.652Z,9.17
2019-03-11T12:15:19.784Z,9.15
2019-03-11T12:16:20.196Z,9.10
2019-03-11T12:17:20.394Z,9.07
2019-03-11T12:18:20.709Z,8.97
2019-03-11T12:19:20.957Z,8.93
2019-03-11T12:20:21.128Z,8.86
2019-03-11T12:21:21.553Z,8.80
2019-03-11T12:22:21.858Z,8.74
2019-03-11T12:23:22.073Z,8.67
2019-03-11T12:24:22.176Z,8.60
2019-03-11T12:25:22.697Z,8.54
2019-03-11T12:26:22.815Z,8.48
2019-03-11T12:27:22.614Z,8.43
2019-03-11T12:28:23.021Z,8.36
2019-03-11T12:29:23.454Z,8.32
2019-03-11T12:30:23.859Z,8.27
2019-03-11T12:31:24.185Z,8.23
2019-03-11T12:32:24.586Z,8.23
2019-03-11T12:33:25.005Z,8.22
2019-03-11T12:34:25.316Z,8.25
2019-03-11T12:35:25.839Z,8.27
2019-03-11T12:36:25.646Z,8.29
2019-03-11T12:37:26.050Z,8.32
2019-03-11T12:38:25.655Z,8.35
2019-03-11T12:39:26.472Z,8.38
2019-03-11T12:40:26.794Z,8.41
2019-03-11T12:41:27.114Z,8.43
2019-03-11T12:42:27.318Z,8.41
2019-03-11T12:43:27.323Z,8.43
2019-03-11T12:44:27.860Z,8.44
2019-03-11T12:45:27.859Z,8.50
2019-03-11T12:46:27.851Z,8.54
2019-03-11T12:47:28.267Z,8.57
2019-03-11T12:48:28.272Z,8.60
2019-03-11T12:49:28.065Z,8.62
2019-03-11T12:50:28.613Z,8.64
2019-03-11T12:51:28.614Z,8.64
2019-03-11T12:52:29.121Z,8.64
2019-03-11T12:53:29.022Z,8.59
2019-03-11T12:54:29.540Z,8.52
2019-03-11T12:55:29.248Z,8.51
2019-03-11T12:56:29.654Z,8.48
2019-03-11T12:57:29.985Z,8.45
2019-03-11T12:58:40.803Z,8.43
2019-03-11T12:59:30.562Z,8.41
2019-03-11T13:00:31.015Z,8.40
2019-03-11T13:01:31.225Z,8.39
2019-03-11T13:02:31.670Z,8.36
2019-03-11T13:03:32.152Z,8.31
2019-03-11T13:04:31.981Z,8.30
2019-03-11T13:05:32.462Z,8.30
2019-03-11T13:06:32.899Z,8.28
2019-03-11T13:07:33.119Z,8.27
2019-03-11T13:08:33.528Z,8.27
2019-03-11T13:09:33.838Z,8.28
2019-03-11T13:10:34.151Z,8.27
2019-03-11T13:11:34.351Z,8.24
2019-03-11T13:12:34.382Z,8.22
2019-03-11T13:13:34.584Z,8.22
2019-03-11T13:14:35.100Z,8.24
2019-03-11T13:15:34.797Z,8.26
2019-03-11T13:16:35.011Z,8.27
2019-03-11T13:17:35.439Z,8.28
2019-03-11T13:18:35.850Z,8.28
2019-03-11T13:19:35.758Z,8.31
2019-03-11T13:20:36.163Z,8.31
2019-03-11T13:21:36.681Z,8.35
2019-03-11T13:22:36.598Z,8.38
2019-03-11T13:23:36.278Z,8.40
2019-03-11T13:24:37.211Z,8.38
2019-03-11T13:25:37.729Z,8.34
2019-03-11T13:26:37.430Z,8.34
2019-03-11T13:27:37.957Z,8.32
2019-03-11T13:28:37.754Z,8.32
2019-03-11T13:29:37.962Z,8.31
2019-03-11T13:30:38.175Z,8.30
2019-03-11T13:31:38.382Z,8.30
2019-03-11T13:32:38.704Z,8.30
2019-03-11T13:33:39.113Z,8.30
2019-03-11T13:34:39.290Z,8.28